Latest Coastal Weather Observations for Cape Otway

IDT60701

Issued at 7:32 pm EST Wednesday 6 May 2026 (issued every 10 minutes, with the page automatically refreshed every 10 minutes)

About coastal observations | Map of coastal stations | Coastal observations for TAS | Marine services | Other Formats
Station Details ID: 090015 Name: CAPE OTWAY LIGHTHOUSE Lat: -38.86 Lon: 143.51 Height: 80.0 m
Data from the previous 72 hours. | See also: Recent months at Cape Otway
Date/Time
EST
Wind Sea
Height
m
Swell Vis
km
Cloud Weather Temp
°C
Press
MSL
hPa
Rain since
9am
mm
Dir  Spd
kts
Gust
kts
Height
m
Period
s
Dir
06/07:30pm SW 31 45 - - - - - - - 10.1 1015.9 7.8
06/07:22pm WSW 27 45 - - - - - - - 11.6 1015.6 7.8
06/07:00pm WSW 22 33 - - - - - - - 11.3 1015.7 7.8
06/06:30pm WSW 22 32 - - - - - - - 10.2 1015.6 7.6
06/06:00pm WSW 22 33 - - - - - - Rain 10.7 1015.1 6.6
06/05:31pm WSW 23 33 - - - - - - - 11.0 1014.5 5.8
06/05:30pm WSW 24 33 - - - - - - - 10.8 1014.5 5.8
06/05:00pm WSW 24 36 - - - - - - - 11.3 1014.1 5.4
06/04:31pm WSW 25 35 - - - - - - - 11.2 1014.0 5.2
06/04:30pm WSW 25 34 - - - - - - - 11.3 1014.0 5.2
06/04:00pm WSW 25 37 - - - - - - - 12.0 1013.6 3.8
06/03:37pm WSW 25 37 - - - - - - - 12.9 1013.3 1.8
06/03:30pm W 23 34 - - - - - - - 13.4 1012.9 1.8
06/03:03pm WNW 20 31 - - - - - - - 14.8 1013.0 1.2
06/03:00pm WNW 20 27 - - - - - - - 14.8 1013.1 1.2
06/02:30pm WNW 19 27 - - - - - - - 14.3 1013.4 1.2
06/02:11pm WNW 17 27 - - - - - - - 13.6 1013.6 1.2
06/02:00pm WNW 17 26 - - - - - - - 13.7 1013.8 1.2
06/01:30pm WNW 18 29 - - - - - - - 13.5 1014.2 1.2
06/01:00pm NW 13 22 - - - - - - - 14.5 1014.7 0.4
06/12:30pm NW 12 19 - - - - - - - 14.3 1015.4 0.4
06/12:00pm WNW 12 19 - - - - - - - 13.9 1016.1 0.0
06/11:30am NW 12 19 - - - - - - - 13.9 1016.5 0.0
06/11:00am NW 14 20 - - - - - - - 14.8 1016.7 0.0
06/10:30am NW 12 19 - - - - - - - 14.4 1016.9 0.0
06/10:00am NW 13 19 - - - - - - - 14.8 1017.2 0.0
06/09:30am NW 12 20 - - - - - - - 14.5 1017.6 0.0
06/09:00am NW 14 23 - - - - - - - 14.5 1017.7 0.0
06/08:30am NW 13 19 - - - - - - - 14.1 1017.6 0.0
06/08:00am NW 13 19 - - - - - - - 14.4 1017.8 0.0
06/07:30am NW 13 21 - - - - - - - 13.5 1017.8 0.0
06/07:00am NW 13 19 - - - - - - - 13.4 1018.0 0.0
06/06:30am NW 13 20 - - - - - - - 13.4 1018.2 0.0
06/06:00am NW 12 19 - - - - - - - 13.3 1018.3 0.0
06/05:30am NW 11 20 - - - - - - - 13.5 1018.3 0.0
06/05:00am NW 11 19 - - - - - - - 13.5 1018.4 0.0
06/04:30am NW 10 16 - - - - - - - 13.6 1018.4 0.0
06/04:00am NW 12 19 - - - - - - - 13.5 1018.6 0.0
06/03:30am NW 12 21 - - - - - - - 13.7 1018.8 0.0
06/03:00am NW 12 19 - - - - - - - 13.8 1018.9 0.0
06/02:30am NW 11 17 - - - - - - - 13.5 1019.3 0.0
06/02:00am NW 11 16 - - - - - - - 13.5 1019.6 0.0
06/01:30am NW 11 18 - - - - - - - 13.5 1019.9 0.0
06/01:00am NW 10 15 - - - - - - - 13.6 1020.2 0.0
06/12:30am NW 10 14 - - - - - - - 13.4 1020.3 0.0
06/12:00am NW 10 18 - - - - - - - 13.3 1020.5 0.0
 
Date/Time
EST
Wind Sea
Height
m
Swell Vis
km
Cloud Weather Temp
°C
Press
MSL
hPa
Rain since
9am
mm
Dir  Spd
kts
Gust
kts
Height
m
Period
s
Dir
05/11:30pm NW 11 17 - - - - - - - 13.0 1020.8 0.0
05/11:00pm NW 10 15 - - - - - - - 12.5 1021.1 0.0
05/10:30pm NW 9 12 - - - - - - - 13.2 1021.4 0.0
05/10:00pm NW 10 16 - - - - - - - 13.2 1021.5 0.0
05/09:30pm NNW 8 11 - - - - - - - 12.7 1021.4 0.0
05/09:00pm NW 8 11 - - - - - - - 12.7 1021.4 0.0
05/08:30pm NW 8 12 - - - - - - - 12.9 1021.4 0.0
05/08:00pm NW 8 12 - - - - - - - 12.5 1021.4 0.0
05/07:30pm NW 9 12 - - - - - - - 12.3 1021.5 0.0
05/07:00pm NW 10 14 - - - - - - - 12.8 1021.6 0.0
05/06:30pm NW 11 16 - - - - - - - 13.0 1021.4 0.0
05/06:00pm W 11 15 - - - - - - - 13.6 1021.1 0.0
05/05:30pm WNW 11 17 - - - - - - - 14.1 1020.9 0.0
05/05:00pm W 13 17 - - - - - - - 14.1 1020.6 0.0
05/04:30pm W 11 17 - - - - - - - 14.1 1020.3 0.0
05/04:00pm W 14 19 - - - - - - - 14.2 1020.2 0.0
05/03:30pm W 11 18 - - - - - - - 14.3 1019.9 0.0
05/03:00pm W 12 17 - - - - - - - 14.3 1019.7 0.0
05/02:30pm W 12 19 - - - - - - - 14.5 1019.5 0.0
05/02:00pm W 15 21 - - - - - - - 14.4 1019.2 0.0
05/01:30pm W 16 22 - - - - - - - 14.8 1019.1 0.0
05/01:00pm W 15 21 - - - - - - - 14.8 1019.2 0.0
05/12:30pm WSW 13 21 - - - - - - - 14.7 1019.3 0.0
05/12:00pm W 11 15 - - - - - - - 14.5 1019.5 0.0
05/11:30am W 11 15 - - - - - - - 13.9 1019.7 0.0
05/11:00am WSW 12 17 - - - - - - - 13.6 1019.7 0.0
05/10:30am WSW 13 19 - - - - - - - 13.2 1019.3 0.0
05/10:00am WSW 13 18 - - - - - - - 14.1 1019.1 0.0
05/09:30am WSW 14 21 - - - - - - - 13.4 1018.9 0.0
05/09:00am WSW 13 21 - - - - - - - 12.9 1018.8 7.2
05/08:30am WSW 16 24 - - - - - - - 12.4 1018.3 7.2
05/08:00am W 17 26 - - - - - - - 12.8 1017.7 7.2
05/07:30am W 17 24 - - - - - - - 12.4 1017.1 7.2
05/07:00am WSW 16 24 - - - - - - - 12.2 1016.5 7.2
05/06:30am WSW 15 22 - - - - - - - 12.3 1016.1 6.8
05/06:07am WSW 16 26 - - - - - - - 12.3 1015.8 6.6
05/06:00am WSW 17 26 - - - - - - Recent precip. 12.5 1015.6 6.6
05/05:30am W 19 27 - - - - - - - 12.6 1015.3 6.6
05/05:00am W 19 27 - - - - - - - 12.9 1014.8 6.4
05/04:30am W 19 27 - - - - - - - 13.2 1014.4 6.4
05/04:00am WSW 19 30 - - - - - - - 13.0 1014.1 6.4
05/03:53am WSW 18 30 - - - - - - - 13.1 1014.0 6.4
05/03:30am WSW 17 26 - - - - - - - 13.5 1014.0 5.8
05/03:02am WSW 17 27 - - - - - - - 13.8 1013.7 5.8
05/03:00am WSW 17 25 - - - - - - - 13.8 1013.7 5.8
05/02:35am WSW 18 28 - - - - - - - 13.8 1013.3 5.8
05/02:30am WSW 18 26 - - - - - - - 13.9 1013.3 5.8
05/02:14am WSW 18 29 - - - - - - - 13.8 1013.2 5.8
05/02:00am WSW 19 27 - - - - - - - 14.0 1013.0 5.8
05/01:30am WSW 19 29 - - - - - - - 13.8 1012.6 5.8
05/01:02am WSW 16 26 - - - - - - - 13.9 1012.4 5.8
05/01:00am WSW 17 26 - - - - - - - 13.8 1012.3 5.8
05/12:30am WSW 20 30 - - - - - - - 13.6 1011.9 5.8
05/12:00am WSW 21 32 - - - - - - Rain 13.4 1011.6 5.6
 
Date/Time
EST
Wind Sea
Height
m
Swell Vis
km
Cloud Weather Temp
°C
Press
MSL
hPa
Rain since
9am
mm
Dir  Spd
kts
Gust
kts
Height
m
Period
s
Dir
04/11:42pm WSW 21 31 - - - - - - - 13.2 1011.3 4.2
04/11:30pm W 22 29 - - - - - - - 13.5 1011.1 3.6
04/11:09pm W 24 34 - - - - - - - 13.6 1010.9 3.6
04/11:00pm W 24 33 - - - - - - - 13.8 1010.6 3.6
04/10:30pm W 21 31 - - - - - - - 14.1 1010.4 3.6
04/10:00pm W 24 35 - - - - - - - 14.0 1009.8 3.6
04/09:30pm W 23 35 - - - - - - - 14.1 1009.2 3.4
04/09:00pm W 24 35 - - - - - - - 13.7 1008.3 3.2
04/08:30pm W 26 39 - - - - - - - 13.9 1007.6 3.2
04/08:08pm W 23 33 - - - - - - - 14.2 1007.4 3.2
04/08:00pm W 24 33 - - - - - - - 14.0 1007.3 3.2
04/07:30pm WNW 20 34 - - - - - - - 14.0 1006.8 2.8
04/07:00pm WNW 22 33 - - - - - - - 14.3 1006.5 2.4
04/06:30pm WNW 18 29 - - - - - - - 13.9 1006.0 2.0
04/06:00pm WNW 16 28 - - - - - - Recent precip. 13.6 1005.8 1.8
04/05:51pm NW 15 28 - - - - - - - 13.3 1005.7 1.8
04/05:30pm NW 14 24 - - - - - - - 13.2 1005.5 1.4
04/05:02pm NW 15 25 - - - - - - - 13.7 1005.3 0.8
04/05:00pm NW 14 25 - - - - - - - 13.7 1005.3 0.8
04/04:30pm NW 15 23 - - - - - - - 13.9 1005.1 0.6
04/04:00pm NW 11 16 - - - - - - - 13.9 1005.0 0.4
04/03:30pm NNW 12 19 - - - - - - - 14.9 1004.9 0.0
04/03:00pm NNW 11 18 - - - - - - - 15.6 1004.9 0.0
04/02:30pm NNW 13 22 - - - - - - - 17.0 1004.7 0.0
04/02:00pm NNW 11 21 - - - - - - - 17.6 1004.9 0.0
04/01:30pm NNW 10 16 - - - - - - - 18.3 1005.2 0.0
04/01:00pm NNW 11 20 - - - - - - - 16.6 1005.5 0.0
04/12:30pm NNW 11 21 - - - - - - - 16.8 1005.8 0.0
04/12:00pm NNW 11 19 - - - - - - - 16.9 1006.1 0.0
04/11:30am NNW 13 25 - - - - - - - 15.9 1006.6 0.0
04/11:00am N 13 24 - - - - - - - 16.3 1006.5 0.0
04/10:30am NNW 12 22 - - - - - - - 16.0 1006.7 0.0
04/10:00am NNW 15 29 - - - - - - - 15.5 1006.4 0.0
04/09:30am N 16 26 - - - - - - - 15.0 1006.5 0.0
04/09:16am N 15 27 - - - - - - - 15.0 1006.6 0.0
04/09:00am N 12 20 - - - - - - - 14.9 1006.7 2.4
04/08:30am N 12 20 - - - - - - - 13.9 1006.9 2.4
04/08:00am NNE 9 14 - - - - - - - 13.0 1007.0 2.4
04/07:30am N 9 16 - - - - - - - 12.8 1007.0 2.4
04/07:00am N 12 19 - - - - - - - 12.7 1007.1 2.4
04/06:30am N 12 18 - - - - - - - 12.9 1007.1 2.4
04/06:00am N 10 15 - - - - - - - 12.9 1007.5 2.4
04/05:30am N 8 13 - - - - - - - 13.1 1007.4 2.4
04/05:00am N 10 18 - - - - - - - 13.6 1007.5 2.4
04/04:30am N 12 20 - - - - - - - 13.9 1007.6 2.4
04/04:00am N 9 15 - - - - - - - 14.0 1008.0 2.4
04/03:30am N 8 17 - - - - - - - 13.7 1008.2 2.4
04/03:00am N 10 17 - - - - - - - 14.2 1008.0 2.4
04/02:30am N 12 19 - - - - - - - 14.1 1008.1 2.4
04/02:00am N 10 18 - - - - - - - 13.8 1008.3 2.4
04/01:30am N 10 17 - - - - - - - 13.7 1008.7 2.4
04/01:00am NNW 11 19 - - - - - - - 13.8 1008.8 2.4
04/12:30am N 12 17 - - - - - - - 14.1 1009.0 2.4
04/12:00am NNW 12 17 - - - - - - - 14.2 1009.1 2.4
 
Date/Time
EST
Wind Sea
Height
m
Swell Vis
km
Cloud Weather Temp
°C
Press
MSL
hPa
Rain since
9am
mm
Dir  Spd
kts
Gust
kts
Height
m
Period
s
Dir
03/11:30pm NNW 12 17 - - - - - - - 14.7 1009.4 2.4
03/11:00pm NNW 10 15 - - - - - - - 15.2 1009.8 2.4
03/10:30pm NNW 11 18 - - - - - - - 15.4 1010.0 2.4
03/10:00pm NNW 10 16 - - - - - - - 15.2 1010.1 2.4
03/09:30pm NNW 12 17 - - - - - - - 15.1 1010.1 2.4
03/09:00pm N 9 14 - - - - - - - 15.0 1010.2 2.4
03/08:30pm N 10 14 - - - - - - - 15.3 1010.0 2.4
03/08:00pm N 8 11 - - - - - - - 14.8 1009.8 2.4

Other formats

Comma delimited format used in spreadsheet applications
http://www.bom.gov.au/fwo/IDT60701/IDT60701.94842.axf

JavaScript Object Notation format (JSON) in row-major order
http://www.bom.gov.au/fwo/IDT60701/IDT60701.94842.json

Data quality

Most of these data are generated automatically and are frequently updated. Quality checks on data are not normally performed. It is possible for incorrect values to appear. Refer to information at About Latest Weather Observations and please check the disclaimer before using these data.